sensor_id;sensor_type;location;lat;lon;timestamp;temperature;humidity
8248;DHT22;4164;49.844;8.830;2023-04-06T00:01:26;1.80;93.00
8248;DHT22;4164;49.844;8.830;2023-04-06T00:03:51;1.80;92.80
8248;DHT22;4164;49.844;8.830;2023-04-06T00:06:17;1.80;92.80
8248;DHT22;4164;49.844;8.830;2023-04-06T00:08:43;1.70;93.80
8248;DHT22;4164;49.844;8.830;2023-04-06T00:11:09;1.70;93.50
8248;DHT22;4164;49.844;8.830;2023-04-06T00:13:35;1.70;94.10
8248;DHT22;4164;49.844;8.830;2023-04-06T00:16:01;1.80;94.20
8248;DHT22;4164;49.844;8.830;2023-04-06T00:18:26;1.70;94.20
8248;DHT22;4164;49.844;8.830;2023-04-06T00:20:52;1.70;93.50
8248;DHT22;4164;49.844;8.830;2023-04-06T00:23:18;1.60;93.90
8248;DHT22;4164;49.844;8.830;2023-04-06T00:25:43;1.70;94.50
8248;DHT22;4164;49.844;8.830;2023-04-06T00:28:09;1.60;95.10
8248;DHT22;4164;49.844;8.830;2023-04-06T00:30:34;1.60;96.70
8248;DHT22;4164;49.844;8.830;2023-04-06T00:33:00;1.60;96.90
8248;DHT22;4164;49.844;8.830;2023-04-06T00:35:26;1.50;97.70
8248;DHT22;4164;49.844;8.830;2023-04-06T00:37:51;1.50;98.30
8248;DHT22;4164;49.844;8.830;2023-04-06T00:40:17;1.50;97.30
8248;DHT22;4164;49.844;8.830;2023-04-06T00:42:43;1.70;96.50
8248;DHT22;4164;49.844;8.830;2023-04-06T00:45:09;1.80;96.60
8248;DHT22;4164;49.844;8.830;2023-04-06T00:47:35;1.80;97.10
8248;DHT22;4164;49.844;8.830;2023-04-06T00:50:00;1.90;96.80
8248;DHT22;4164;49.844;8.830;2023-04-06T00:52:26;2.00;95.80
8248;DHT22;4164;49.844;8.830;2023-04-06T00:54:51;2.10;94.90
8248;DHT22;4164;49.844;8.830;2023-04-06T00:57:17;2.10;95.20
8248;DHT22;4164;49.844;8.830;2023-04-06T00:59:43;2.20;95.80
8248;DHT22;4164;49.844;8.830;2023-04-06T01:02:09;2.20;95.70
8248;DHT22;4164;49.844;8.830;2023-04-06T01:04:35;2.20;96.10
8248;DHT22;4164;49.844;8.830;2023-04-06T01:07:01;2.20;96.50
8248;DHT22;4164;49.844;8.830;2023-04-06T01:09:30;2.20;95.30
8248;DHT22;4164;49.844;8.830;2023-04-06T01:11:59;2.10;94.50
8248;DHT22;4164;49.844;8.830;2023-04-06T01:14:25;2.00;94.60
8248;DHT22;4164;49.844;8.830;2023-04-06T01:16:51;2.00;94.80
8248;DHT22;4164;49.844;8.830;2023-04-06T01:19:17;2.00;95.00
8248;DHT22;4164;49.844;8.830;2023-04-06T01:21:43;2.10;95.30
8248;DHT22;4164;49.844;8.830;2023-04-06T01:24:09;2.20;96.00
8248;DHT22;4164;49.844;8.830;2023-04-06T01:26:35;2.30;96.30
8248;DHT22;4164;49.844;8.830;2023-04-06T01:29:02;2.30;96.70
8248;DHT22;4164;49.844;8.830;2023-04-06T01:31:28;2.20;97.60
8248;DHT22;4164;49.844;8.830;2023-04-06T01:33:53;2.00;98.30
8248;DHT22;4164;49.844;8.830;2023-04-06T01:36:19;1.90;99.90
8248;DHT22;4164;49.844;8.830;2023-04-06T01:38:45;1.90;99.90
8248;DHT22;4164;49.844;8.830;2023-04-06T01:41:11;2.00;99.50
8248;DHT22;4164;49.844;8.830;2023-04-06T01:43:36;1.90;98.90
8248;DHT22;4164;49.844;8.830;2023-04-06T01:46:02;1.60;99.90
8248;DHT22;4164;49.844;8.830;2023-04-06T01:48:28;1.80;99.90
8248;DHT22;4164;49.844;8.830;2023-04-06T01:50:54;1.90;99.00
8248;DHT22;4164;49.844;8.830;2023-04-06T01:53:20;1.90;98.90
8248;DHT22;4164;49.844;8.830;2023-04-06T01:55:45;1.90;98.70
8248;DHT22;4164;49.844;8.830;2023-04-06T01:58:11;1.70;99.90
8248;DHT22;4164;49.844;8.830;2023-04-06T02:00:37;1.80;98.90
8248;DHT22;4164;49.844;8.830;2023-04-06T02:03:03;1.80;97.80
8248;DHT22;4164;49.844;8.830;2023-04-06T02:05:30;1.70;97.80
8248;DHT22;4164;49.844;8.830;2023-04-06T02:07:55;1.80;97.50
8248;DHT22;4164;49.844;8.830;2023-04-06T02:10:22;1.80;96.90
8248;DHT22;4164;49.844;8.830;2023-04-06T02:12:48;1.70;96.70
8248;DHT22;4164;49.844;8.830;2023-04-06T02:15:13;1.60;98.30
8248;DHT22;4164;49.844;8.830;2023-04-06T02:17:40;1.60;96.50
8248;DHT22;4164;49.844;8.830;2023-04-06T02:20:06;1.60;95.70
8248;DHT22;4164;49.844;8.830;2023-04-06T02:22:32;1.50;99.50
8248;DHT22;4164;49.844;8.830;2023-04-06T02:24:57;1.30;99.90
8248;DHT22;4164;49.844;8.830;2023-04-06T02:27:23;1.30;99.90
8248;DHT22;4164;49.844;8.830;2023-04-06T02:29:49;1.00;99.90
8248;DHT22;4164;49.844;8.830;2023-04-06T02:32:15;1.10;99.90
8248;DHT22;4164;49.844;8.830;2023-04-06T02:34:40;1.20;99.90
8248;DHT22;4164;49.844;8.830;2023-04-06T02:37:06;1.10;99.90
8248;DHT22;4164;49.844;8.830;2023-04-06T02:39:32;1.10;99.90
8248;DHT22;4164;49.844;8.830;2023-04-06T02:41:57;1.20;99.90
8248;DHT22;4164;49.844;8.830;2023-04-06T02:44:24;1.20;99.90
8248;DHT22;4164;49.844;8.830;2023-04-06T02:46:49;1.10;99.90
8248;DHT22;4164;49.844;8.830;2023-04-06T02:49:16;1.20;99.90
8248;DHT22;4164;49.844;8.830;2023-04-06T02:51:41;1.20;99.90
8248;DHT22;4164;49.844;8.830;2023-04-06T02:54:07;1.20;99.90
8248;DHT22;4164;49.844;8.830;2023-04-06T02:56:32;1.20;99.90
8248;DHT22;4164;49.844;8.830;2023-04-06T02:58:58;1.20;99.90
8248;DHT22;4164;49.844;8.830;2023-04-06T03:01:23;1.10;99.90
8248;DHT22;4164;49.844;8.830;2023-04-06T03:03:49;1.10;99.90
8248;DHT22;4164;49.844;8.830;2023-04-06T03:06:15;1.10;99.90
8248;DHT22;4164;49.844;8.830;2023-04-06T03:08:40;1.10;99.90
8248;DHT22;4164;49.844;8.830;2023-04-06T03:11:06;1.00;99.90
8248;DHT22;4164;49.844;8.830;2023-04-06T03:13:31;1.10;99.90
8248;DHT22;4164;49.844;8.830;2023-04-06T03:15:57;1.20;99.90
8248;DHT22;4164;49.844;8.830;2023-04-06T03:18:24;1.10;99.90
8248;DHT22;4164;49.844;8.830;2023-04-06T03:20:50;1.00;99.90
8248;DHT22;4164;49.844;8.830;2023-04-06T03:23:16;1.00;99.90
8248;DHT22;4164;49.844;8.830;2023-04-06T03:25:41;1.00;99.90
8248;DHT22;4164;49.844;8.830;2023-04-06T03:28:07;1.00;99.90
8248;DHT22;4164;49.844;8.830;2023-04-06T03:30:34;1.00;99.90
8248;DHT22;4164;49.844;8.830;2023-04-06T03:32:59;1.00;99.90
8248;DHT22;4164;49.844;8.830;2023-04-06T03:35:25;0.70;99.90
8248;DHT22;4164;49.844;8.830;2023-04-06T03:37:51;0.70;99.90
8248;DHT22;4164;49.844;8.830;2023-04-06T03:40:16;0.80;99.90
8248;DHT22;4164;49.844;8.830;2023-04-06T03:42:42;0.70;99.90
8248;DHT22;4164;49.844;8.830;2023-04-06T03:45:08;0.70;99.90
8248;DHT22;4164;49.844;8.830;2023-04-06T03:47:33;0.70;99.90
8248;DHT22;4164;49.844;8.830;2023-04-06T03:49:59;0.60;99.90
8248;DHT22;4164;49.844;8.830;2023-04-06T03:52:25;0.60;99.90
8248;DHT22;4164;49.844;8.830;2023-04-06T03:54:51;0.60;99.90
8248;DHT22;4164;49.844;8.830;2023-04-06T03:57:17;0.50;99.90
8248;DHT22;4164;49.844;8.830;2023-04-06T03:59:42;0.40;99.90
8248;DHT22;4164;49.844;8.830;2023-04-06T04:02:07;0.40;99.90
8248;DHT22;4164;49.844;8.830;2023-04-06T04:04:33;0.30;99.90
8248;DHT22;4164;49.844;8.830;2023-04-06T04:06:59;0.20;99.90
8248;DHT22;4164;49.844;8.830;2023-04-06T04:09:24;0.20;99.90
8248;DHT22;4164;49.844;8.830;2023-04-06T04:11:50;0.10;99.90
8248;DHT22;4164;49.844;8.830;2023-04-06T04:14:15;0.10;99.90
8248;DHT22;4164;49.844;8.830;2023-04-06T04:16:41;0.20;99.90
8248;DHT22;4164;49.844;8.830;2023-04-06T04:19:07;0.30;99.90
8248;DHT22;4164;49.844;8.830;2023-04-06T04:21:32;0.30;99.90
8248;DHT22;4164;49.844;8.830;2023-04-06T04:23:58;0.40;99.90
8248;DHT22;4164;49.844;8.830;2023-04-06T04:26:23;0.50;99.90
8248;DHT22;4164;49.844;8.830;2023-04-06T04:28:49;0.40;99.90
8248;DHT22;4164;49.844;8.830;2023-04-06T04:31:15;0.30;99.90
8248;DHT22;4164;49.844;8.830;2023-04-06T04:33:43;0.10;99.90
8248;DHT22;4164;49.844;8.830;2023-04-06T04:36:09;0.00;99.90
8248;DHT22;4164;49.844;8.830;2023-04-06T04:38:35;0.00;99.90
8248;DHT22;4164;49.844;8.830;2023-04-06T04:41:01;0.00;99.90
8248;DHT22;4164;49.844;8.830;2023-04-06T04:43:26;0.00;99.90
8248;DHT22;4164;49.844;8.830;2023-04-06T04:45:52;0.00;99.90
8248;DHT22;4164;49.844;8.830;2023-04-06T04:48:17;0.10;99.90
8248;DHT22;4164;49.844;8.830;2023-04-06T04:50:43;0.20;99.90
8248;DHT22;4164;49.844;8.830;2023-04-06T04:53:08;0.20;99.90
8248;DHT22;4164;49.844;8.830;2023-04-06T04:55:35;0.30;99.90
8248;DHT22;4164;49.844;8.830;2023-04-06T04:58:00;0.40;99.90
8248;DHT22;4164;49.844;8.830;2023-04-06T05:00:26;0.40;99.90
8248;DHT22;4164;49.844;8.830;2023-04-06T05:02:51;0.40;99.90
8248;DHT22;4164;49.844;8.830;2023-04-06T05:05:17;0.40;99.90
8248;DHT22;4164;49.844;8.830;2023-04-06T05:07:42;0.50;99.90
8248;DHT22;4164;49.844;8.830;2023-04-06T05:10:08;0.40;99.90
8248;DHT22;4164;49.844;8.830;2023-04-06T05:12:34;0.30;99.90
8248;DHT22;4164;49.844;8.830;2023-04-06T05:15:00;0.20;99.90
8248;DHT22;4164;49.844;8.830;2023-04-06T05:17:26;0.10;99.90
8248;DHT22;4164;49.844;8.830;2023-04-06T05:19:51;0.30;99.90
8248;DHT22;4164;49.844;8.830;2023-04-06T05:22:17;0.40;99.90
8248;DHT22;4164;49.844;8.830;2023-04-06T05:24:43;0.40;99.90
8248;DHT22;4164;49.844;8.830;2023-04-06T05:27:09;0.40;99.90
8248;DHT22;4164;49.844;8.830;2023-04-06T05:29:35;0.40;99.90
8248;DHT22;4164;49.844;8.830;2023-04-06T05:32:01;0.30;99.90
8248;DHT22;4164;49.844;8.830;2023-04-06T05:34:26;0.30;99.90
8248;DHT22;4164;49.844;8.830;2023-04-06T05:36:52;0.40;99.90
8248;DHT22;4164;49.844;8.830;2023-04-06T05:39:17;0.40;99.90
8248;DHT22;4164;49.844;8.830;2023-04-06T05:41:43;0.50;99.90
8248;DHT22;4164;49.844;8.830;2023-04-06T05:44:08;0.60;99.90
8248;DHT22;4164;49.844;8.830;2023-04-06T05:46:34;0.70;99.90
8248;DHT22;4164;49.844;8.830;2023-04-06T05:49:00;0.90;99.90
8248;DHT22;4164;49.844;8.830;2023-04-06T05:51:25;1.00;99.90
8248;DHT22;4164;49.844;8.830;2023-04-06T05:53:52;0.80;99.90
8248;DHT22;4164;49.844;8.830;2023-04-06T05:56:18;0.90;99.90
8248;DHT22;4164;49.844;8.830;2023-04-06T05:58:44;1.00;99.90
8248;DHT22;4164;49.844;8.830;2023-04-06T06:01:09;1.00;99.90
8248;DHT22;4164;49.844;8.830;2023-04-06T06:03:35;1.10;99.90
8248;DHT22;4164;49.844;8.830;2023-04-06T06:06:02;1.20;99.90
8248;DHT22;4164;49.844;8.830;2023-04-06T06:08:28;1.40;99.90
8248;DHT22;4164;49.844;8.830;2023-04-06T06:10:53;1.40;99.90
8248;DHT22;4164;49.844;8.830;2023-04-06T06:13:19;1.60;99.90
8248;DHT22;4164;49.844;8.830;2023-04-06T06:15:45;1.60;99.90
8248;DHT22;4164;49.844;8.830;2023-04-06T06:18:10;1.70;99.90
8248;DHT22;4164;49.844;8.830;2023-04-06T06:20:39;1.80;99.90
8248;DHT22;4164;49.844;8.830;2023-04-06T06:23:04;2.00;99.90
8248;DHT22;4164;49.844;8.830;2023-04-06T06:25:30;2.00;99.90
8248;DHT22;4164;49.844;8.830;2023-04-06T06:27:56;2.10;99.90
8248;DHT22;4164;49.844;8.830;2023-04-06T06:30:22;2.30;99.90
8248;DHT22;4164;49.844;8.830;2023-04-06T06:32:47;2.30;99.90
8248;DHT22;4164;49.844;8.830;2023-04-06T06:35:13;2.30;99.90
8248;DHT22;4164;49.844;8.830;2023-04-06T06:37:39;2.40;99.90
8248;DHT22;4164;49.844;8.830;2023-04-06T06:40:05;2.40;99.90
8248;DHT22;4164;49.844;8.830;2023-04-06T06:42:30;2.40;99.90
8248;DHT22;4164;49.844;8.830;2023-04-06T06:44:56;2.40;99.90
8248;DHT22;4164;49.844;8.830;2023-04-06T06:47:21;2.30;99.90
8248;DHT22;4164;49.844;8.830;2023-04-06T06:49:47;2.30;99.90
8248;DHT22;4164;49.844;8.830;2023-04-06T06:52:12;2.40;99.90
8248;DHT22;4164;49.844;8.830;2023-04-06T06:54:38;2.50;99.90
8248;DHT22;4164;49.844;8.830;2023-04-06T06:57:03;2.60;99.90
8248;DHT22;4164;49.844;8.830;2023-04-06T06:59:29;3.00;99.90
8248;DHT22;4164;49.844;8.830;2023-04-06T07:01:55;3.30;99.90
8248;DHT22;4164;49.844;8.830;2023-04-06T07:04:20;3.60;99.90
8248;DHT22;4164;49.844;8.830;2023-04-06T07:06:46;3.80;99.90
8248;DHT22;4164;49.844;8.830;2023-04-06T07:09:11;4.00;99.90
8248;DHT22;4164;49.844;8.830;2023-04-06T07:11:37;4.20;99.90
8248;DHT22;4164;49.844;8.830;2023-04-06T07:14:02;4.30;99.90
8248;DHT22;4164;49.844;8.830;2023-04-06T07:16:28;4.50;99.90
8248;DHT22;4164;49.844;8.830;2023-04-06T07:18:53;4.60;99.90
8248;DHT22;4164;49.844;8.830;2023-04-06T07:21:19;4.90;99.90
8248;DHT22;4164;49.844;8.830;2023-04-06T07:23:44;4.90;99.90
8248;DHT22;4164;49.844;8.830;2023-04-06T07:26:13;5.10;99.90
8248;DHT22;4164;49.844;8.830;2023-04-06T07:28:39;5.10;99.90
8248;DHT22;4164;49.844;8.830;2023-04-06T07:31:05;5.30;99.90
8248;DHT22;4164;49.844;8.830;2023-04-06T07:33:31;5.50;99.90
8248;DHT22;4164;49.844;8.830;2023-04-06T07:35:56;5.50;99.90
8248;DHT22;4164;49.844;8.830;2023-04-06T07:38:23;5.80;99.90
8248;DHT22;4164;49.844;8.830;2023-04-06T07:40:49;5.80;99.90
8248;DHT22;4164;49.844;8.830;2023-04-06T07:43:14;5.80;99.90
8248;DHT22;4164;49.844;8.830;2023-04-06T07:45:40;6.00;99.90
8248;DHT22;4164;49.844;8.830;2023-04-06T07:48:06;6.00;99.90
8248;DHT22;4164;49.844;8.830;2023-04-06T07:50:32;6.10;99.90
8248;DHT22;4164;49.844;8.830;2023-04-06T07:52:57;6.40;99.90
8248;DHT22;4164;49.844;8.830;2023-04-06T07:55:23;6.80;99.90
8248;DHT22;4164;49.844;8.830;2023-04-06T07:57:48;7.00;99.90
8248;DHT22;4164;49.844;8.830;2023-04-06T08:00:14;7.00;99.90
8248;DHT22;4164;49.844;8.830;2023-04-06T08:02:40;7.30;99.90
8248;DHT22;4164;49.844;8.830;2023-04-06T08:05:05;7.40;99.90
8248;DHT22;4164;49.844;8.830;2023-04-06T08:07:31;7.50;99.60
8248;DHT22;4164;49.844;8.830;2023-04-06T08:09:57;7.70;99.60
8248;DHT22;4164;49.844;8.830;2023-04-06T08:12:22;7.90;99.40
8248;DHT22;4164;49.844;8.830;2023-04-06T08:14:48;7.70;99.90
8248;DHT22;4164;49.844;8.830;2023-04-06T08:17:13;7.70;99.90
8248;DHT22;4164;49.844;8.830;2023-04-06T08:19:39;8.00;99.90
8248;DHT22;4164;49.844;8.830;2023-04-06T08:22:04;8.00;99.60
8248;DHT22;4164;49.844;8.830;2023-04-06T08:24:30;7.40;99.90
8248;DHT22;4164;49.844;8.830;2023-04-06T08:26:57;7.00;99.90
8248;DHT22;4164;49.844;8.830;2023-04-06T08:29:23;7.50;99.90
8248;DHT22;4164;49.844;8.830;2023-04-06T08:31:48;7.60;99.90
8248;DHT22;4164;49.844;8.830;2023-04-06T08:34:14;7.80;99.70
8248;DHT22;4164;49.844;8.830;2023-04-06T08:36:41;8.30;99.40
8248;DHT22;4164;49.844;8.830;2023-04-06T08:39:06;8.80;98.90
8248;DHT22;4164;49.844;8.830;2023-04-06T08:41:34;9.00;98.80
8248;DHT22;4164;49.844;8.830;2023-04-06T08:44:01;9.30;99.10
8248;DHT22;4164;49.844;8.830;2023-04-06T08:46:28;9.50;96.40
8248;DHT22;4164;49.844;8.830;2023-04-06T08:48:59;9.60;95.60
8248;DHT22;4164;49.844;8.830;2023-04-06T08:51:25;9.90;99.00
8248;DHT22;4164;49.844;8.830;2023-04-06T08:53:52;10.10;96.20
8248;DHT22;4164;49.844;8.830;2023-04-06T08:56:20;10.20;95.60
8248;DHT22;4164;49.844;8.830;2023-04-06T08:58:47;10.30;96.30
8248;DHT22;4164;49.844;8.830;2023-04-06T09:01:14;10.70;93.10
8248;DHT22;4164;49.844;8.830;2023-04-06T09:03:42;10.80;89.60
8248;DHT22;4164;49.844;8.830;2023-04-06T09:06:09;10.70;91.00
8248;DHT22;4164;49.844;8.830;2023-04-06T09:08:35;11.00;90.70
8248;DHT22;4164;49.844;8.830;2023-04-06T09:11:02;11.40;89.80
8248;DHT22;4164;49.844;8.830;2023-04-06T09:13:27;11.50;91.70
8248;DHT22;4164;49.844;8.830;2023-04-06T09:16:03;11.60;89.70
8248;DHT22;4164;49.844;8.830;2023-04-06T09:18:30;11.70;84.50
8248;DHT22;4164;49.844;8.830;2023-04-06T09:21:06;11.80;83.90
8248;DHT22;4164;49.844;8.830;2023-04-06T09:23:32;12.20;83.90
8248;DHT22;4164;49.844;8.830;2023-04-06T09:26:15;12.40;82.00
8248;DHT22;4164;49.844;8.830;2023-04-06T09:31:22;12.10;78.10
8248;DHT22;4164;49.844;8.830;2023-04-06T09:33:47;12.00;77.50
8248;DHT22;4164;49.844;8.830;2023-04-06T09:36:13;12.00;74.00
8248;DHT22;4164;49.844;8.830;2023-04-06T09:38:58;11.90;78.30
8248;DHT22;4164;49.844;8.830;2023-04-06T09:41:31;12.20;80.00
8248;DHT22;4164;49.844;8.830;2023-04-06T09:44:07;12.40;61.70
8248;DHT22;4164;49.844;8.830;2023-04-06T09:46:41;11.90;58.10
8248;DHT22;4164;49.844;8.830;2023-04-06T09:49:08;11.30;58.10
8248;DHT22;4164;49.844;8.830;2023-04-06T09:51:37;11.40;58.60
8248;DHT22;4164;49.844;8.830;2023-04-06T09:54:03;11.40;59.10
8248;DHT22;4164;49.844;8.830;2023-04-06T09:56:43;11.40;57.70
8248;DHT22;4164;49.844;8.830;2023-04-06T09:59:14;11.60;56.90
8248;DHT22;4164;49.844;8.830;2023-04-06T10:01:40;11.90;55.80
8248;DHT22;4164;49.844;8.830;2023-04-06T10:06:45;11.90;54.50
8248;DHT22;4164;49.844;8.830;2023-04-06T10:09:13;12.20;55.50
8248;DHT22;4164;49.844;8.830;2023-04-06T10:11:39;11.60;54.30
8248;DHT22;4164;49.844;8.830;2023-04-06T10:14:08;11.40;56.70
8248;DHT22;4164;49.844;8.830;2023-04-06T10:16:34;11.80;56.30
8248;DHT22;4164;49.844;8.830;2023-04-06T10:19:13;12.20;56.30
8248;DHT22;4164;49.844;8.830;2023-04-06T10:21:42;12.20;55.20
8248;DHT22;4164;49.844;8.830;2023-04-06T10:24:10;12.30;54.80
8248;DHT22;4164;49.844;8.830;2023-04-06T10:26:39;12.60;55.80
8248;DHT22;4164;49.844;8.830;2023-04-06T10:29:05;12.50;55.10
8248;DHT22;4164;49.844;8.830;2023-04-06T10:31:31;12.50;54.40
8248;DHT22;4164;49.844;8.830;2023-04-06T10:34:01;12.50;55.80
8248;DHT22;4164;49.844;8.830;2023-04-06T10:36:31;12.50;54.70
8248;DHT22;4164;49.844;8.830;2023-04-06T10:38:59;12.80;53.00
8248;DHT22;4164;49.844;8.830;2023-04-06T10:41:33;13.30;53.90
8248;DHT22;4164;49.844;8.830;2023-04-06T10:43:59;12.50;52.50
8248;DHT22;4164;49.844;8.830;2023-04-06T10:46:29;12.70;52.50
8248;DHT22;4164;49.844;8.830;2023-04-06T10:48:55;12.90;52.90
8248;DHT22;4164;49.844;8.830;2023-04-06T10:51:25;12.90;52.80
8248;DHT22;4164;49.844;8.830;2023-04-06T10:53:55;13.20;52.40
8248;DHT22;4164;49.844;8.830;2023-04-06T10:56:24;14.20;52.10
8248;DHT22;4164;49.844;8.830;2023-04-06T10:58:54;14.20;50.50
8248;DHT22;4164;49.844;8.830;2023-04-06T11:01:23;15.30;48.10
8248;DHT22;4164;49.844;8.830;2023-04-06T11:03:51;16.70;48.50
8248;DHT22;4164;49.844;8.830;2023-04-06T11:06:25;19.10;44.00
8248;DHT22;4164;49.844;8.830;2023-04-06T11:08:52;18.00;43.40
8248;DHT22;4164;49.844;8.830;2023-04-06T11:11:21;16.20;44.80
8248;DHT22;4164;49.844;8.830;2023-04-06T11:13:51;15.60;43.60
8248;DHT22;4164;49.844;8.830;2023-04-06T11:16:31;17.60;42.50
8248;DHT22;4164;49.844;8.830;2023-04-06T11:19:00;15.40;42.90
8248;DHT22;4164;49.844;8.830;2023-04-06T11:21:36;17.10;42.40
8248;DHT22;4164;49.844;8.830;2023-04-06T11:24:06;17.70;41.70
8248;DHT22;4164;49.844;8.830;2023-04-06T11:26:36;18.80;40.30
8248;DHT22;4164;49.844;8.830;2023-04-06T11:29:01;19.60;40.30
8248;DHT22;4164;49.844;8.830;2023-04-06T11:31:27;20.00;39.00
8248;DHT22;4164;49.844;8.830;2023-04-06T11:33:56;22.10;36.30
8248;DHT22;4164;49.844;8.830;2023-04-06T11:36:22;19.70;37.40
8248;DHT22;4164;49.844;8.830;2023-04-06T11:38:48;23.40;35.70
8248;DHT22;4164;49.844;8.830;2023-04-06T11:41:14;19.30;36.20
8248;DHT22;4164;49.844;8.830;2023-04-06T11:43:47;20.00;37.30
8248;DHT22;4164;49.844;8.830;2023-04-06T11:46:18;18.80;36.60
8248;DHT22;4164;49.844;8.830;2023-04-06T11:48:45;17.50;37.10
8248;DHT22;4164;49.844;8.830;2023-04-06T11:51:11;18.60;36.90
8248;DHT22;4164;49.844;8.830;2023-04-06T11:53:44;18.30;37.30
8248;DHT22;4164;49.844;8.830;2023-04-06T11:56:11;18.00;36.40
8248;DHT22;4164;49.844;8.830;2023-04-06T11:58:36;18.50;36.30
8248;DHT22;4164;49.844;8.830;2023-04-06T12:01:05;17.20;37.70
8248;DHT22;4164;49.844;8.830;2023-04-06T12:03:31;20.00;35.40
8248;DHT22;4164;49.844;8.830;2023-04-06T12:05:56;19.00;35.90
8248;DHT22;4164;49.844;8.830;2023-04-06T12:08:22;20.10;37.00
8248;DHT22;4164;49.844;8.830;2023-04-06T12:10:50;20.30;34.80
8248;DHT22;4164;49.844;8.830;2023-04-06T12:13:16;19.70;34.50
8248;DHT22;4164;49.844;8.830;2023-04-06T12:15:41;18.80;36.00
8248;DHT22;4164;49.844;8.830;2023-04-06T12:18:07;16.90;36.20
8248;DHT22;4164;49.844;8.830;2023-04-06T12:20:32;15.60;38.60
8248;DHT22;4164;49.844;8.830;2023-04-06T12:22:58;18.40;38.20
8248;DHT22;4164;49.844;8.830;2023-04-06T12:25:23;20.70;34.70
8248;DHT22;4164;49.844;8.830;2023-04-06T12:27:49;21.00;36.20
8248;DHT22;4164;49.844;8.830;2023-04-06T12:30:15;20.80;32.90
8248;DHT22;4164;49.844;8.830;2023-04-06T12:32:41;19.80;32.00
8248;DHT22;4164;49.844;8.830;2023-04-06T12:35:07;18.80;35.10
8248;DHT22;4164;49.844;8.830;2023-04-06T12:37:34;17.90;35.90
8248;DHT22;4164;49.844;8.830;2023-04-06T12:40:00;17.90;34.80
8248;DHT22;4164;49.844;8.830;2023-04-06T12:42:25;17.70;34.60
8248;DHT22;4164;49.844;8.830;2023-04-06T12:44:51;17.90;38.00
8248;DHT22;4164;49.844;8.830;2023-04-06T12:47:17;19.30;34.90
8248;DHT22;4164;49.844;8.830;2023-04-06T12:49:43;21.00;34.90
8248;DHT22;4164;49.844;8.830;2023-04-06T12:52:10;21.50;33.60
8248;DHT22;4164;49.844;8.830;2023-04-06T12:54:35;22.10;32.50
8248;DHT22;4164;49.844;8.830;2023-04-06T12:57:01;22.20;31.60
8248;DHT22;4164;49.844;8.830;2023-04-06T12:59:27;20.90;31.70
8248;DHT22;4164;49.844;8.830;2023-04-06T13:01:56;21.00;32.80
8248;DHT22;4164;49.844;8.830;2023-04-06T13:04:21;22.40;32.40
8248;DHT22;4164;49.844;8.830;2023-04-06T13:06:48;22.70;30.30
8248;DHT22;4164;49.844;8.830;2023-04-06T13:09:14;22.30;30.80
8248;DHT22;4164;49.844;8.830;2023-04-06T13:11:40;20.20;32.10
8248;DHT22;4164;49.844;8.830;2023-04-06T13:14:06;18.40;32.70
8248;DHT22;4164;49.844;8.830;2023-04-06T13:16:32;18.30;33.00
8248;DHT22;4164;49.844;8.830;2023-04-06T13:18:57;16.70;33.50
8248;DHT22;4164;49.844;8.830;2023-04-06T13:21:23;17.20;34.40
8248;DHT22;4164;49.844;8.830;2023-04-06T13:23:48;17.20;33.30
8248;DHT22;4164;49.844;8.830;2023-04-06T13:26:14;17.30;35.30
8248;DHT22;4164;49.844;8.830;2023-04-06T13:28:40;17.80;35.40
8248;DHT22;4164;49.844;8.830;2023-04-06T13:31:06;18.10;36.90
8248;DHT22;4164;49.844;8.830;2023-04-06T13:33:32;17.80;34.30
8248;DHT22;4164;49.844;8.830;2023-04-06T13:35:58;17.70;36.10
8248;DHT22;4164;49.844;8.830;2023-04-06T13:38:24;19.60;34.30
8248;DHT22;4164;49.844;8.830;2023-04-06T13:40:49;20.50;34.60
8248;DHT22;4164;49.844;8.830;2023-04-06T13:43:15;20.40;32.40
8248;DHT22;4164;49.844;8.830;2023-04-06T13:45:41;19.10;32.10
8248;DHT22;4164;49.844;8.830;2023-04-06T13:48:06;17.30;33.70
8248;DHT22;4164;49.844;8.830;2023-04-06T13:50:32;16.00;35.90
8248;DHT22;4164;49.844;8.830;2023-04-06T13:52:58;16.90;35.20
8248;DHT22;4164;49.844;8.830;2023-04-06T13:55:24;17.90;33.90
8248;DHT22;4164;49.844;8.830;2023-04-06T13:57:50;17.90;34.70
8248;DHT22;4164;49.844;8.830;2023-04-06T14:00:17;19.40;34.60
8248;DHT22;4164;49.844;8.830;2023-04-06T14:02:43;18.40;35.20
8248;DHT22;4164;49.844;8.830;2023-04-06T14:05:09;17.10;35.30
8248;DHT22;4164;49.844;8.830;2023-04-06T14:07:35;18.10;36.80
8248;DHT22;4164;49.844;8.830;2023-04-06T14:10:01;18.50;35.70
8248;DHT22;4164;49.844;8.830;2023-04-06T14:12:26;18.40;34.50
8248;DHT22;4164;49.844;8.830;2023-04-06T14:14:52;18.60;35.20
8248;DHT22;4164;49.844;8.830;2023-04-06T14:17:18;18.20;34.10
8248;DHT22;4164;49.844;8.830;2023-04-06T14:19:43;18.60;35.00
8248;DHT22;4164;49.844;8.830;2023-04-06T14:22:09;17.50;34.40
8248;DHT22;4164;49.844;8.830;2023-04-06T14:24:35;17.10;35.90
8248;DHT22;4164;49.844;8.830;2023-04-06T14:27:01;17.60;34.80
8248;DHT22;4164;49.844;8.830;2023-04-06T14:29:27;15.90;35.90
8248;DHT22;4164;49.844;8.830;2023-04-06T14:31:53;15.10;37.70
8248;DHT22;4164;49.844;8.830;2023-04-06T14:34:27;15.10;37.80
8248;DHT22;4164;49.844;8.830;2023-04-06T14:36:53;14.30;37.90
8248;DHT22;4164;49.844;8.830;2023-04-06T14:39:19;14.70;38.20
8248;DHT22;4164;49.844;8.830;2023-04-06T14:41:44;14.30;38.10
8248;DHT22;4164;49.844;8.830;2023-04-06T14:44:10;15.00;38.70
8248;DHT22;4164;49.844;8.830;2023-04-06T14:46:37;14.70;38.10
8248;DHT22;4164;49.844;8.830;2023-04-06T14:49:03;14.50;39.20
8248;DHT22;4164;49.844;8.830;2023-04-06T14:51:28;15.10;38.00
8248;DHT22;4164;49.844;8.830;2023-04-06T14:53:54;15.20;38.70
8248;DHT22;4164;49.844;8.830;2023-04-06T14:56:24;15.00;36.20
8248;DHT22;4164;49.844;8.830;2023-04-06T14:58:50;14.90;38.30
8248;DHT22;4164;49.844;8.830;2023-04-06T15:01:17;14.50;38.40
8248;DHT22;4164;49.844;8.830;2023-04-06T15:03:43;14.60;38.50
8248;DHT22;4164;49.844;8.830;2023-04-06T15:06:12;14.50;37.90
8248;DHT22;4164;49.844;8.830;2023-04-06T15:08:44;14.50;39.00
8248;DHT22;4164;49.844;8.830;2023-04-06T15:11:11;14.30;38.80
8248;DHT22;4164;49.844;8.830;2023-04-06T15:13:37;14.30;39.60
8248;DHT22;4164;49.844;8.830;2023-04-06T15:16:03;14.80;39.20
8248;DHT22;4164;49.844;8.830;2023-04-06T15:18:29;14.90;38.40
8248;DHT22;4164;49.844;8.830;2023-04-06T15:20:55;14.50;38.60
8248;DHT22;4164;49.844;8.830;2023-04-06T15:23:20;14.60;39.10
8248;DHT22;4164;49.844;8.830;2023-04-06T15:25:46;14.40;39.00
8248;DHT22;4164;49.844;8.830;2023-04-06T15:28:12;14.10;39.10
8248;DHT22;4164;49.844;8.830;2023-04-06T15:30:38;14.40;38.10
8248;DHT22;4164;49.844;8.830;2023-04-06T15:33:04;14.40;38.70
8248;DHT22;4164;49.844;8.830;2023-04-06T15:35:32;14.40;39.20
8248;DHT22;4164;49.844;8.830;2023-04-06T15:37:59;14.20;38.70
8248;DHT22;4164;49.844;8.830;2023-04-06T15:40:25;14.40;38.60
8248;DHT22;4164;49.844;8.830;2023-04-06T15:42:51;14.80;38.70
8248;DHT22;4164;49.844;8.830;2023-04-06T15:45:17;15.00;39.60
8248;DHT22;4164;49.844;8.830;2023-04-06T15:47:44;14.70;38.90
8248;DHT22;4164;49.844;8.830;2023-04-06T15:50:10;14.50;38.40
8248;DHT22;4164;49.844;8.830;2023-04-06T15:52:37;14.60;38.10
8248;DHT22;4164;49.844;8.830;2023-04-06T15:55:05;14.70;39.50
8248;DHT22;4164;49.844;8.830;2023-04-06T15:57:31;14.80;38.00
8248;DHT22;4164;49.844;8.830;2023-04-06T15:59:57;14.50;37.60
8248;DHT22;4164;49.844;8.830;2023-04-06T16:02:23;14.40;37.90
8248;DHT22;4164;49.844;8.830;2023-04-06T16:04:54;14.20;38.40
8248;DHT22;4164;49.844;8.830;2023-04-06T16:07:20;14.00;39.60
8248;DHT22;4164;49.844;8.830;2023-04-06T16:09:45;13.90;39.90